Aeroporto :
LOGIN :

Iscrizione | Disclaimer

   EN    FR    IT 

 










Sommario :    VFR   VFR Marginale   IFR   IFR Intensivo   IFR Molto Intensivo
Visibilità : 
Base nubi : 
>= 8 km
>= 3000ft
5 / 8 km
1000 / 3000 ft
1500m / 5 km
500 / 1000 ft
800 / 1500m
200 / 500 ft
< 800m
< 200 ft
Simboli :   Temporali  Nebbia  Neve Forte  Precipitazioni Forti  Vento > 20 kt
SIGMETs :   Varie  Temporali  Ghiacco  Turbolenza  Onda orograficha  Ceneri Vulcaniche






- Altitudine del aeroporto : 171 ft
- Codice IATA : EGC


LFBE - Bergerac

ULTIMO METAR :
  • 180700Z AUTO 08003KT CAVOK 19/15 Q1012 BECMG 16010KT

METARs OBSOLETI :
  • 180630Z AUTO 09004KT CAVOK 16/13 Q1012 BECMG 16010KT
  • 180600Z AUTO 09003KT CAVOK 15/12 Q1012 NOSIG
  • 180530Z AUTO 10002KT CAVOK 14/12 Q1012 NOSIG
  • 180500Z AUTO 09004KT 060V160 CAVOK 14/12 Q1011 NOSIG
  • 180430Z AUTO 07006KT CAVOK 14/12 Q1012 NOSIG

TAF TAF LFBE
Valido dal 18 a 06 ore il 19 a 06 ore UTC


180500Z 1806/1906 09010KT CAVOK
BECMG 1808/1810 16010KT
TEMPO 1815/1822 22010KT -SHRA BKN070TCU
PROB30
TEMPO 1816/1819 22015G30KT 2000 TSRA BKN060CB
PROB30 1822/1906 VRB02KT 3000 BR BKN005



MetMap, La meteo Aeronautica in un colpo d'occhio ! - Copyright ORBIFLY Dicembre 2007 - Disclaimer

ORBIFLY MET'MAP TEAM :

Programmazione e sviluppo : Alexandra Zaïnal
Concezione : Baudouin d'Aumeries
Aiuto per la programmazione : Marc-Olivier Méhu
Supporto tecnico e logistico : Manuel Goepfert
Aiuto per la traduzione : Arnaldo La Scala

Contatto : metmap@orbifly.com




FONTI E CREDITI :

   NOAA